sensor_id;sensor_type;location;lat;lon;timestamp;pressure;altitude;pressure_sealevel;temperature;humidity
62544;BME280;48597;49.030;1.822;2023-07-29T00:00:43;100129.97;;;24.28;50.95
62544;BME280;48597;49.030;1.822;2023-07-29T00:03:09;100137.00;;;24.27;50.95
62544;BME280;48597;49.030;1.822;2023-07-29T00:05:34;100134.13;;;24.27;51.11
62544;BME280;48597;49.030;1.822;2023-07-29T00:08:00;100123.91;;;24.26;51.40
62544;BME280;48597;49.030;1.822;2023-07-29T00:10:25;100117.34;;;24.25;51.04
62544;BME280;48597;49.030;1.822;2023-07-29T00:12:51;100110.28;;;24.26;50.96
62544;BME280;48597;49.030;1.822;2023-07-29T00:15:16;100106.63;;;24.26;51.01
62544;BME280;48597;49.030;1.822;2023-07-29T00:17:42;100101.34;;;24.24;50.97
62544;BME280;48597;49.030;1.822;2023-07-29T00:20:07;100094.81;;;24.24;50.96
62544;BME280;48597;49.030;1.822;2023-07-29T00:22:33;100100.56;;;24.24;50.95
62544;BME280;48597;49.030;1.822;2023-07-29T00:24:58;100102.66;;;24.23;51.02
62544;BME280;48597;49.030;1.822;2023-07-29T00:27:25;100109.22;;;24.24;51.06
62544;BME280;48597;49.030;1.822;2023-07-29T00:29:50;100102.66;;;24.23;50.99
62544;BME280;48597;49.030;1.822;2023-07-29T00:32:16;100101.03;;;24.22;51.00
62544;BME280;48597;49.030;1.822;2023-07-29T00:34:41;100108.88;;;24.21;51.03
62544;BME280;48597;49.030;1.822;2023-07-29T00:37:10;100108.88;;;24.21;50.91
62544;BME280;48597;49.030;1.822;2023-07-29T00:39:36;100102.31;;;24.21;51.04
62544;BME280;48597;49.030;1.822;2023-07-29T00:42:02;100102.81;;;24.19;50.90
62544;BME280;48597;49.030;1.822;2023-07-29T00:44:28;100108.56;;;24.19;51.02
62544;BME280;48597;49.030;1.822;2023-07-29T00:46:54;100106.50;;;24.20;50.97
62544;BME280;48597;49.030;1.822;2023-07-29T00:49:21;100113.53;;;24.19;51.04
62544;BME280;48597;49.030;1.822;2023-07-29T00:51:47;100109.06;;;24.18;50.96
62544;BME280;48597;49.030;1.822;2023-07-29T00:54:13;100102.03;;;24.19;50.99
62544;BME280;48597;49.030;1.822;2023-07-29T00:56:39;100095.47;;;24.18;50.92
62544;BME280;48597;49.030;1.822;2023-07-29T00:59:04;100104.59;;;24.17;50.99
62544;BME280;48597;49.030;1.822;2023-07-29T01:01:31;100095.97;;;24.17;50.66
62544;BME280;48597;49.030;1.822;2023-07-29T01:03:57;100098.84;;;24.17;50.92
62544;BME280;48597;49.030;1.822;2023-07-29T01:14:39;100099.88;;;24.14;51.14
62544;BME280;48597;49.030;1.822;2023-07-29T01:17:09;100101.94;;;24.13;51.24
62544;BME280;48597;49.030;1.822;2023-07-29T01:22:23;100106.91;;;24.13;51.02
62544;BME280;48597;49.030;1.822;2023-07-29T01:24:49;100104.03;;;24.13;51.06
62544;BME280;48597;49.030;1.822;2023-07-29T01:27:14;100106.91;;;24.13;51.06
62544;BME280;48597;49.030;1.822;2023-07-29T01:29:40;100105.31;;;24.12;51.18
62544;BME280;48597;49.030;1.822;2023-07-29T01:32:28;100101.66;;;24.11;51.42
62544;BME280;48597;49.030;1.822;2023-07-29T01:37:26;100105.03;;;24.10;51.12
62544;BME280;48597;49.030;1.822;2023-07-29T01:39:55;100076.25;;;24.10;51.16
62544;BME280;48597;49.030;1.822;2023-07-29T01:42:22;100084.88;;;24.10;51.22
62544;BME280;48597;49.030;1.822;2023-07-29T01:44:48;100086.97;;;24.09;51.04
62544;BME280;48597;49.030;1.822;2023-07-29T01:47:13;100100.56;;;24.09;51.13
62544;BME280;48597;49.030;1.822;2023-07-29T01:49:38;100109.19;;;24.09;51.41
62544;BME280;48597;49.030;1.822;2023-07-29T01:52:04;100112.56;;;24.07;51.28
62544;BME280;48597;49.030;1.822;2023-07-29T01:54:29;100088.75;;;24.07;51.12
62544;BME280;48597;49.030;1.822;2023-07-29T01:56:55;100085.88;;;24.07;51.35
62544;BME280;48597;49.030;1.822;2023-07-29T01:59:20;100081.41;;;24.06;51.22
62544;BME280;48597;49.030;1.822;2023-07-29T02:01:45;100077.22;;;24.07;51.27
62544;BME280;48597;49.030;1.822;2023-07-29T02:04:11;100083.00;;;24.07;51.21
62544;BME280;48597;49.030;1.822;2023-07-29T02:06:37;100088.75;;;24.07;51.23
62544;BME280;48597;49.030;1.822;2023-07-29T02:09:02;100095.78;;;24.06;51.14
62544;BME280;48597;49.030;1.822;2023-07-29T02:11:29;100095.78;;;24.06;51.29
62544;BME280;48597;49.030;1.822;2023-07-29T02:13:55;100104.94;;;24.04;51.23
62544;BME280;48597;49.030;1.822;2023-07-29T02:16:21;100108.59;;;24.05;51.22
62544;BME280;48597;49.030;1.822;2023-07-29T02:18:48;100110.69;;;24.04;51.43
62544;BME280;48597;49.030;1.822;2023-07-29T02:21:15;100101.25;;;24.04;51.11
62544;BME280;48597;49.030;1.822;2023-07-29T02:23:40;100111.19;;;24.03;51.23
62544;BME280;48597;49.030;1.822;2023-07-29T02:26:06;100101.75;;;24.02;51.29
62544;BME280;48597;49.030;1.822;2023-07-29T02:28:31;100098.88;;;24.02;51.27
62544;BME280;48597;49.030;1.822;2023-07-29T02:33:43;100093.13;;;24.02;51.19
62544;BME280;48597;49.030;1.822;2023-07-29T02:36:09;100089.47;;;24.02;51.27
62544;BME280;48597;49.030;1.822;2023-07-29T02:38:34;100098.09;;;24.02;51.15
62544;BME280;48597;49.030;1.822;2023-07-29T02:41:00;100099.41;;;24.01;51.24
62544;BME280;48597;49.030;1.822;2023-07-29T02:43:25;100099.41;;;24.01;51.17
62544;BME280;48597;49.030;1.822;2023-07-29T02:45:51;100104.34;;;24.00;51.18
62544;BME280;48597;49.030;1.822;2023-07-29T02:48:16;100103.56;;;24.00;51.28
62544;BME280;48597;49.030;1.822;2023-07-29T02:50:42;100116.66;;;24.01;51.19
62544;BME280;48597;49.030;1.822;2023-07-29T02:53:07;100115.88;;;24.00;51.29
62544;BME280;48597;49.030;1.822;2023-07-29T02:55:32;100111.41;;;23.99;51.42
62544;BME280;48597;49.030;1.822;2023-07-29T02:57:57;100117.16;;;23.99;51.26
62544;BME280;48597;49.030;1.822;2023-07-29T03:00:23;100104.06;;;23.98;51.33
62544;BME280;48597;49.030;1.822;2023-07-29T03:02:50;100106.13;;;23.98;51.29
62544;BME280;48597;49.030;1.822;2023-07-29T03:05:15;100116.88;;;23.97;51.31
62544;BME280;48597;49.030;1.822;2023-07-29T03:07:41;100121.31;;;23.98;51.33
62544;BME280;48597;49.030;1.822;2023-07-29T03:10:06;100127.59;;;23.97;51.33
62544;BME280;48597;49.030;1.822;2023-07-29T03:12:32;100132.06;;;23.98;51.34
62544;BME280;48597;49.030;1.822;2023-07-29T03:14:57;100124.69;;;23.97;51.32
62544;BME280;48597;49.030;1.822;2023-07-29T03:17:23;100128.38;;;23.97;51.38
62544;BME280;48597;49.030;1.822;2023-07-29T03:19:49;100125.50;;;23.97;51.25
62544;BME280;48597;49.030;1.822;2023-07-29T03:22:15;100124.69;;;23.97;51.33
62544;BME280;48597;49.030;1.822;2023-07-29T03:24:40;100120.22;;;23.96;51.32
62544;BME280;48597;49.030;1.822;2023-07-29T03:27:07;100123.13;;;23.96;51.29
62544;BME280;48597;49.030;1.822;2023-07-29T03:29:35;100115.75;;;23.95;51.18
62544;BME280;48597;49.030;1.822;2023-07-29T03:32:04;100118.66;;;23.95;51.26
62544;BME280;48597;49.030;1.822;2023-07-29T03:34:29;100122.81;;;23.94;51.30
62544;BME280;48597;49.030;1.822;2023-07-29T03:36:54;100123.59;;;23.94;51.29
62544;BME280;48597;49.030;1.822;2023-07-29T03:39:20;100127.78;;;23.93;51.35
62544;BME280;48597;49.030;1.822;2023-07-29T03:41:45;100128.56;;;23.94;51.30
62544;BME280;48597;49.030;1.822;2023-07-29T03:44:11;100125.38;;;23.92;51.24
62544;BME280;48597;49.030;1.822;2023-07-29T03:46:36;100124.09;;;23.93;51.29
62544;BME280;48597;49.030;1.822;2023-07-29T03:49:01;100122.50;;;23.92;51.25
62544;BME280;48597;49.030;1.822;2023-07-29T03:51:28;100126.97;;;23.93;51.15
62544;BME280;48597;49.030;1.822;2023-07-29T03:53:53;100128.25;;;23.92;51.28
62544;BME280;48597;49.030;1.822;2023-07-29T03:56:19;100128.25;;;23.92;51.17
62544;BME280;48597;49.030;1.822;2023-07-29T03:58:45;100121.72;;;23.91;51.19
62544;BME280;48597;49.030;1.822;2023-07-29T04:01:12;100125.38;;;23.92;51.16
62544;BME280;48597;49.030;1.822;2023-07-29T04:03:37;100123.00;;;23.90;51.19
62544;BME280;48597;49.030;1.822;2023-07-29T04:06:02;100132.44;;;23.91;51.26
62544;BME280;48597;49.030;1.822;2023-07-29T04:08:28;100127.47;;;23.91;51.36
62544;BME280;48597;49.030;1.822;2023-07-29T04:10:53;100125.38;;;23.92;51.39
62544;BME280;48597;49.030;1.822;2023-07-29T04:13:19;100120.91;;;23.91;51.42
62544;BME280;48597;49.030;1.822;2023-07-29T04:15:45;100125.38;;;23.92;51.59
62544;BME280;48597;49.030;1.822;2023-07-29T04:18:10;100125.38;;;23.92;51.48
62544;BME280;48597;49.030;1.822;2023-07-29T04:20:35;100139.00;;;23.91;51.34
62544;BME280;48597;49.030;1.822;2023-07-29T04:23:01;100139.78;;;23.92;51.49
62544;BME280;48597;49.030;1.822;2023-07-29T04:25:28;100147.13;;;23.93;51.57
62544;BME280;48597;49.030;1.822;2023-07-29T04:27:53;100152.09;;;23.92;51.51
62544;BME280;48597;49.030;1.822;2023-07-29T04:30:19;100157.06;;;23.92;51.49
62544;BME280;48597;49.030;1.822;2023-07-29T04:32:45;100154.19;;;23.92;51.39
62544;BME280;48597;49.030;1.822;2023-07-29T04:35:13;100149.22;;;23.92;51.38
62544;BME280;48597;49.030;1.822;2023-07-29T04:37:39;100147.13;;;23.93;51.44
62544;BME280;48597;49.030;1.822;2023-07-29T04:40:07;100144.75;;;23.91;51.39
62544;BME280;48597;49.030;1.822;2023-07-29T04:42:32;100135.63;;;23.93;51.27
62544;BME280;48597;49.030;1.822;2023-07-29T04:44:58;100147.94;;;23.93;51.26
62544;BME280;48597;49.030;1.822;2023-07-29T04:47:23;100140.56;;;23.92;51.54
62544;BME280;48597;49.030;1.822;2023-07-29T04:49:48;100147.94;;;23.93;51.48
62544;BME280;48597;49.030;1.822;2023-07-29T04:52:14;100150.00;;;23.93;51.29
62544;BME280;48597;49.030;1.822;2023-07-29T04:54:40;100146.34;;;23.92;51.29
62544;BME280;48597;49.030;1.822;2023-07-29T04:57:07;100147.13;;;23.93;51.35
62544;BME280;48597;49.030;1.822;2023-07-29T04:59:32;100154.97;;;23.92;51.39
62544;BME280;48597;49.030;1.822;2023-07-29T05:01:57;100155.75;;;23.93;51.35
62544;BME280;48597;49.030;1.822;2023-07-29T05:04:23;100159.44;;;23.93;51.35
62544;BME280;48597;49.030;1.822;2023-07-29T05:06:48;100159.44;;;23.93;51.28
62544;BME280;48597;49.030;1.822;2023-07-29T05:09:15;100163.13;;;23.94;51.49
62544;BME280;48597;49.030;1.822;2023-07-29T05:11:41;100165.19;;;23.93;51.32
62544;BME280;48597;49.030;1.822;2023-07-29T05:14:06;100170.16;;;23.93;51.23
62544;BME280;48597;49.030;1.822;2023-07-29T05:16:32;100168.88;;;23.94;51.16
62544;BME280;48597;49.030;1.822;2023-07-29T05:18:57;100168.06;;;23.93;51.31
62544;BME280;48597;49.030;1.822;2023-07-29T05:21:23;100168.06;;;23.93;51.33
62544;BME280;48597;49.030;1.822;2023-07-29T05:23:48;100179.59;;;23.93;51.42
62544;BME280;48597;49.030;1.822;2023-07-29T05:26:13;100176.72;;;23.93;51.41
62544;BME280;48597;49.030;1.822;2023-07-29T05:28:39;100177.50;;;23.94;51.24
62544;BME280;48597;49.030;1.822;2023-07-29T05:31:04;100171.75;;;23.94;51.32
62544;BME280;48597;49.030;1.822;2023-07-29T05:33:29;100177.50;;;23.94;51.29
62544;BME280;48597;49.030;1.822;2023-07-29T05:35:55;100160.22;;;23.94;51.31
62544;BME280;48597;49.030;1.822;2023-07-29T05:38:20;100168.06;;;23.93;51.39
62544;BME280;48597;49.030;1.822;2023-07-29T05:40:48;100172.53;;;23.94;51.34
62544;BME280;48597;49.030;1.822;2023-07-29T05:43:13;100179.59;;;23.93;51.33
62544;BME280;48597;49.030;1.822;2023-07-29T05:45:39;100177.50;;;23.94;51.25
62544;BME280;48597;49.030;1.822;2023-07-29T05:48:05;100167.56;;;23.95;51.35
62544;BME280;48597;49.030;1.822;2023-07-29T05:50:31;100173.34;;;23.95;51.29
62544;BME280;48597;49.030;1.822;2023-07-29T05:52:56;100161.81;;;23.95;51.19
62544;BME280;48597;49.030;1.822;2023-07-29T05:55:22;100178.31;;;23.94;51.21
62544;BME280;48597;49.030;1.822;2023-07-29T05:57:47;100192.69;;;23.94;51.37
62544;BME280;48597;49.030;1.822;2023-07-29T06:00:12;100194.78;;;23.94;50.98
62544;BME280;48597;49.030;1.822;2023-07-29T06:02:38;100190.59;;;23.95;51.16
62544;BME280;48597;49.030;1.822;2023-07-29T06:05:05;100192.19;;;23.96;51.20
62544;BME280;48597;49.030;1.822;2023-07-29T06:07:30;100185.66;;;23.95;51.36
62544;BME280;48597;49.030;1.822;2023-07-29T06:09:57;100195.06;;;23.96;51.26
62544;BME280;48597;49.030;1.822;2023-07-29T06:12:23;100196.38;;;23.95;51.27
62544;BME280;48597;49.030;1.822;2023-07-29T06:14:48;100195.88;;;23.96;51.25
62544;BME280;48597;49.030;1.822;2023-07-29T06:17:14;100196.66;;;23.97;51.13
62544;BME280;48597;49.030;1.822;2023-07-29T06:19:39;100193.00;;;23.96;51.31
62544;BME280;48597;49.030;1.822;2023-07-29T06:22:05;100193.78;;;23.97;51.27
62544;BME280;48597;49.030;1.822;2023-07-29T06:24:31;100199.56;;;23.97;51.35
62544;BME280;48597;49.030;1.822;2023-07-29T06:26:57;100197.47;;;23.97;51.39
62544;BME280;48597;49.030;1.822;2023-07-29T06:29:22;100193.78;;;23.97;51.27
62544;BME280;48597;49.030;1.822;2023-07-29T06:31:48;100199.56;;;23.97;51.01
62544;BME280;48597;49.030;1.822;2023-07-29T06:34:13;100205.31;;;23.97;51.25
62544;BME280;48597;49.030;1.822;2023-07-29T06:36:39;100215.53;;;23.98;51.20
62544;BME280;48597;49.030;1.822;2023-07-29T06:39:04;100220.50;;;23.97;51.13
62544;BME280;48597;49.030;1.822;2023-07-29T06:41:29;100219.22;;;23.98;51.29
62544;BME280;48597;49.030;1.822;2023-07-29T06:43:55;100222.09;;;23.98;51.22
62544;BME280;48597;49.030;1.822;2023-07-29T06:46:21;100221.28;;;23.98;51.30
62544;BME280;48597;49.030;1.822;2023-07-29T06:48:46;100224.16;;;23.98;51.23
62544;BME280;48597;49.030;1.822;2023-07-29T06:51:12;100218.41;;;23.98;51.21
62544;BME280;48597;49.030;1.822;2023-07-29T06:53:37;100219.22;;;23.98;51.20
62544;BME280;48597;49.030;1.822;2023-07-29T06:56:03;100230.72;;;23.98;51.13
62544;BME280;48597;49.030;1.822;2023-07-29T06:58:28;100224.16;;;23.98;50.91
62544;BME280;48597;49.030;1.822;2023-07-29T07:00:54;100221.28;;;23.98;51.21
62544;BME280;48597;49.030;1.822;2023-07-29T07:03:19;100220.81;;;23.99;51.54
62544;BME280;48597;49.030;1.822;2023-07-29T07:05:44;100217.13;;;23.99;51.07
62544;BME280;48597;49.030;1.822;2023-07-29T07:08:10;100227.34;;;24.00;51.08
62544;BME280;48597;49.030;1.822;2023-07-29T07:10:35;100229.44;;;23.99;51.22
62544;BME280;48597;49.030;1.822;2023-07-29T07:13:01;100229.75;;;24.01;51.21
62544;BME280;48597;49.030;1.822;2023-07-29T07:15:26;100231.03;;;24.00;51.22
62544;BME280;48597;49.030;1.822;2023-07-29T07:17:52;100226.06;;;24.01;51.13
62544;BME280;48597;49.030;1.822;2023-07-29T07:20:17;100232.63;;;24.01;51.15
62544;BME280;48597;49.030;1.822;2023-07-29T07:22:43;100230.53;;;24.02;51.11
62544;BME280;48597;49.030;1.822;2023-07-29T07:25:08;100224.78;;;24.02;51.28
62544;BME280;48597;49.030;1.822;2023-07-29T07:27:33;100228.41;;;24.02;51.27
62544;BME280;48597;49.030;1.822;2023-07-29T07:29:59;100229.75;;;24.01;51.18
62544;BME280;48597;49.030;1.822;2023-07-29T07:32:25;100225.53;;;24.02;51.18
62544;BME280;48597;49.030;1.822;2023-07-29T07:34:51;100226.34;;;24.03;51.02
62544;BME280;48597;49.030;1.822;2023-07-29T07:37:16;100226.34;;;24.03;51.23
62544;BME280;48597;49.030;1.822;2023-07-29T07:39:42;100226.34;;;24.03;51.07
62544;BME280;48597;49.030;1.822;2023-07-29T07:42:07;100233.69;;;24.04;51.32
62544;BME280;48597;49.030;1.822;2023-07-29T07:44:32;100232.88;;;24.03;51.17
62544;BME280;48597;49.030;1.822;2023-07-29T07:46:58;100222.16;;;24.04;51.22
62544;BME280;48597;49.030;1.822;2023-07-29T07:49:23;100232.88;;;24.03;51.01
62544;BME280;48597;49.030;1.822;2023-07-29T07:51:49;100224.25;;;24.03;51.09
62544;BME280;48597;49.030;1.822;2023-07-29T07:54:14;100222.16;;;24.04;51.19
62544;BME280;48597;49.030;1.822;2023-07-29T07:56:39;100218.00;;;24.05;51.07
62544;BME280;48597;49.030;1.822;2023-07-29T07:59:05;100222.97;;;24.04;51.10
62544;BME280;48597;49.030;1.822;2023-07-29T08:01:35;100220.88;;;24.05;51.22
62544;BME280;48597;49.030;1.822;2023-07-29T08:04:01;100223.75;;;24.05;51.08
62544;BME280;48597;49.030;1.822;2023-07-29T08:06:26;100226.63;;;24.05;51.13
62544;BME280;48597;49.030;1.822;2023-07-29T08:08:52;100225.34;;;24.06;51.07
62544;BME280;48597;49.030;1.822;2023-07-29T08:11:17;100223.75;;;24.05;50.98
62544;BME280;48597;49.030;1.822;2023-07-29T08:13:42;100225.03;;;24.04;51.03
62544;BME280;48597;49.030;1.822;2023-07-29T08:16:08;100224.56;;;24.05;51.06
62544;BME280;48597;49.030;1.822;2023-07-29T08:18:33;100212.25;;;24.05;50.96
62544;BME280;48597;49.030;1.822;2023-07-29T08:21:00;100223.75;;;24.05;51.01
62544;BME280;48597;49.030;1.822;2023-07-29T08:23:33;100218.81;;;24.05;50.92
62544;BME280;48597;49.030;1.822;2023-07-29T08:26:00;100225.84;;;24.04;50.97
62544;BME280;48597;49.030;1.822;2023-07-29T08:28:31;100225.03;;;24.04;50.92
62544;BME280;48597;49.030;1.822;2023-07-29T08:30:57;100226.63;;;24.05;50.91
62544;BME280;48597;49.030;1.822;2023-07-29T08:33:23;100226.63;;;24.05;50.99
62544;BME280;48597;49.030;1.822;2023-07-29T08:35:49;100222.97;;;24.04;51.11
62544;BME280;48597;49.030;1.822;2023-07-29T08:38:15;100224.56;;;24.05;51.08
62544;BME280;48597;49.030;1.822;2023-07-29T08:43:30;100222.97;;;24.04;51.21
62544;BME280;48597;49.030;1.822;2023-07-29T08:45:57;100222.97;;;24.04;51.22
62544;BME280;48597;49.030;1.822;2023-07-29T08:48:39;100227.44;;;24.05;51.42
62544;BME280;48597;49.030;1.822;2023-07-29T08:51:05;100218.81;;;24.05;51.42
62544;BME280;48597;49.030;1.822;2023-07-29T08:53:32;100225.34;;;24.06;51.61
62544;BME280;48597;49.030;1.822;2023-07-29T08:55:59;100219.59;;;24.06;51.64
62544;BME280;48597;49.030;1.822;2023-07-29T08:58:25;100210.47;;;24.07;51.59
62544;BME280;48597;49.030;1.822;2023-07-29T09:00:50;100212.06;;;24.08;51.55
62544;BME280;48597;49.030;1.822;2023-07-29T09:03:16;100206.59;;;24.10;51.83
62544;BME280;48597;49.030;1.822;2023-07-29T09:05:41;100208.69;;;24.10;51.89
62544;BME280;48597;49.030;1.822;2023-07-29T09:08:07;100205.81;;;24.10;51.95
62544;BME280;48597;49.030;1.822;2023-07-29T09:10:37;100196.38;;;24.09;51.84
62544;BME280;48597;49.030;1.822;2023-07-29T09:13:03;100199.25;;;24.09;51.91
62544;BME280;48597;49.030;1.822;2023-07-29T09:15:30;100197.66;;;24.08;51.85
62544;BME280;48597;49.030;1.822;2023-07-29T09:17:57;100195.56;;;24.09;51.77
62544;BME280;48597;49.030;1.822;2023-07-29T09:20:27;100202.91;;;24.10;51.84
62544;BME280;48597;49.030;1.822;2023-07-29T09:22:58;100214.44;;;24.10;51.74
62544;BME280;48597;49.030;1.822;2023-07-29T09:25:28;100207.09;;;24.09;51.78
62544;BME280;48597;49.030;1.822;2023-07-29T09:27:59;100211.06;;;24.11;51.53
62544;BME280;48597;49.030;1.822;2023-07-29T09:30:25;100213.16;;;24.11;51.84
62544;BME280;48597;49.030;1.822;2023-07-29T09:32:58;100216.81;;;24.11;51.89
62544;BME280;48597;49.030;1.822;2023-07-29T09:35:24;100207.41;;;24.11;51.80
62544;BME280;48597;49.030;1.822;2023-07-29T09:37:51;100208.19;;;24.11;51.75
62544;BME280;48597;49.030;1.822;2023-07-29T09:40:17;100197.47;;;24.12;51.87
62544;BME280;48597;49.030;1.822;2023-07-29T09:42:50;100206.09;;;24.12;51.80
62544;BME280;48597;49.030;1.822;2023-07-29T09:45:22;100207.69;;;24.13;51.95
62544;BME280;48597;49.030;1.822;2023-07-29T09:47:49;100204.81;;;24.13;51.81
62544;BME280;48597;49.030;1.822;2023-07-29T09:50:15;100202.72;;;24.13;51.80
62544;BME280;48597;49.030;1.822;2023-07-29T09:52:41;100201.94;;;24.13;52.05
62544;BME280;48597;49.030;1.822;2023-07-29T09:55:07;100199.84;;;24.13;51.99
62544;BME280;48597;49.030;1.822;2023-07-29T09:57:33;100208.50;;;24.13;51.75
62544;BME280;48597;49.030;1.822;2023-07-29T09:59:59;100214.25;;;24.13;51.84
62544;BME280;48597;49.030;1.822;2023-07-29T10:02:25;100212.97;;;24.14;51.89
62544;BME280;48597;49.030;1.822;2023-07-29T10:04:54;100212.16;;;24.14;51.99
62544;BME280;48597;49.030;1.822;2023-07-29T10:07:20;100196.97;;;24.13;51.90
62544;BME280;48597;49.030;1.822;2023-07-29T10:09:46;100215.84;;;24.14;51.85
62544;BME280;48597;49.030;1.822;2023-07-29T10:12:13;100205.88;;;24.15;51.75
62544;BME280;48597;49.030;1.822;2023-07-29T10:14:38;100210.84;;;24.15;52.04
62544;BME280;48597;49.030;1.822;2023-07-29T10:17:05;100206.69;;;24.16;52.20
62544;BME280;48597;49.030;1.822;2023-07-29T10:19:31;100201.72;;;24.16;52.21
62544;BME280;48597;49.030;1.822;2023-07-29T10:21:59;100214.03;;;24.17;52.20
62544;BME280;48597;49.030;1.822;2023-07-29T10:24:30;100219.28;;;24.18;52.21
62544;BME280;48597;49.030;1.822;2023-07-29T10:26:58;100217.69;;;24.17;52.21
62544;BME280;48597;49.030;1.822;2023-07-29T10:29:30;100216.41;;;24.18;52.25
62544;BME280;48597;49.030;1.822;2023-07-29T10:31:57;100222.19;;;24.18;52.33
62544;BME280;48597;49.030;1.822;2023-07-29T10:34:26;100209.38;;;24.19;52.62
62544;BME280;48597;49.030;1.822;2023-07-29T10:37:04;100205.69;;;24.19;52.40
62544;BME280;48597;49.030;1.822;2023-07-29T10:39:40;100218.00;;;24.19;52.55
62544;BME280;48597;49.030;1.822;2023-07-29T10:42:16;100206.50;;;24.19;52.16
62544;BME280;48597;49.030;1.822;2023-07-29T10:47:24;100209.38;;;24.19;52.37
62544;BME280;48597;49.030;1.822;2023-07-29T10:49:58;100207.28;;;24.20;52.31
62544;BME280;48597;49.030;1.822;2023-07-29T10:52:30;100197.84;;;24.19;52.41
62544;BME280;48597;49.030;1.822;2023-07-29T10:54:57;100201.53;;;24.20;52.59
62544;BME280;48597;49.030;1.822;2023-07-29T10:57:38;100198.66;;;24.20;52.37
62544;BME280;48597;49.030;1.822;2023-07-29T11:00:08;100199.94;;;24.19;52.41
62544;BME280;48597;49.030;1.822;2023-07-29T11:02:37;100195.75;;;24.20;52.55
62544;BME280;48597;49.030;1.822;2023-07-29T11:05:17;100203.13;;;24.21;52.51
62544;BME280;48597;49.030;1.822;2023-07-29T11:07:47;100194.47;;;24.21;52.41
62544;BME280;48597;49.030;1.822;2023-07-29T11:10:14;100191.59;;;24.21;52.51
62544;BME280;48597;49.030;1.822;2023-07-29T11:12:40;100192.38;;;24.21;52.50
62544;BME280;48597;49.030;1.822;2023-07-29T11:17:41;100192.38;;;24.21;52.62
62544;BME280;48597;49.030;1.822;2023-07-29T11:20:07;100198.16;;;24.21;52.64
62544;BME280;48597;49.030;1.822;2023-07-29T11:22:34;100191.59;;;24.21;52.58
62544;BME280;48597;49.030;1.822;2023-07-29T11:24:59;100191.94;;;24.23;52.62
62544;BME280;48597;49.030;1.822;2023-07-29T11:27:25;100179.63;;;24.23;52.62
62544;BME280;48597;49.030;1.822;2023-07-29T11:29:50;100177.53;;;24.23;52.67
62544;BME280;48597;49.030;1.822;2023-07-29T11:32:21;100169.69;;;24.24;52.79
62544;BME280;48597;49.030;1.822;2023-07-29T11:34:46;100164.22;;;24.26;52.70
62544;BME280;48597;49.030;1.822;2023-07-29T11:37:12;100175.75;;;24.26;52.62
62544;BME280;48597;49.030;1.822;2023-07-29T11:39:40;100162.13;;;24.26;52.65
62544;BME280;48597;49.030;1.822;2023-07-29T11:42:06;100164.22;;;24.26;52.81
62544;BME280;48597;49.030;1.822;2023-07-29T11:44:32;100156.38;;;24.26;52.91
62544;BME280;48597;49.030;1.822;2023-07-29T11:46:57;100155.09;;;24.27;52.71
62544;BME280;48597;49.030;1.822;2023-07-29T11:49:22;100157.97;;;24.27;52.83
62544;BME280;48597;49.030;1.822;2023-07-29T11:51:48;100147.25;;;24.28;52.66
62544;BME280;48597;49.030;1.822;2023-07-29T11:54:15;100148.81;;;24.29;52.87
62544;BME280;48597;49.030;1.822;2023-07-29T11:56:41;100143.03;;;24.29;52.68
62544;BME280;48597;49.030;1.822;2023-07-29T11:59:06;100150.88;;;24.28;52.90
62544;BME280;48597;49.030;1.822;2023-07-29T12:01:32;100145.91;;;24.29;52.92
62544;BME280;48597;49.030;1.822;2023-07-29T12:03:58;100143.84;;;24.29;52.84
62544;BME280;48597;49.030;1.822;2023-07-29T12:06:24;100146.72;;;24.29;52.91
62544;BME280;48597;49.030;1.822;2023-07-29T12:08:50;100142.53;;;24.30;52.94
62544;BME280;48597;49.030;1.822;2023-07-29T12:11:17;100132.63;;;24.31;53.14
62544;BME280;48597;49.030;1.822;2023-07-29T12:13:43;100128.44;;;24.32;53.18
62544;BME280;48597;49.030;1.822;2023-07-29T12:16:08;100137.88;;;24.33;53.09
62544;BME280;48597;49.030;1.822;2023-07-29T12:18:33;100135.78;;;24.33;53.65
62544;BME280;48597;49.030;1.822;2023-07-29T12:20:59;100140.25;;;24.34;53.41
62544;BME280;48597;49.030;1.822;2023-07-29T12:23:25;100139.75;;;24.36;53.38
62544;BME280;48597;49.030;1.822;2023-07-29T12:25:56;100127.44;;;24.35;53.46
62544;BME280;48597;49.030;1.822;2023-07-29T12:28:22;100132.41;;;24.35;53.74
62544;BME280;48597;49.030;1.822;2023-07-29T12:30:47;100127.44;;;24.35;53.49
62544;BME280;48597;49.030;1.822;2023-07-29T12:33:35;100135.09;;;24.38;53.72
62544;BME280;48597;49.030;1.822;2023-07-29T12:36:02;100126.47;;;24.38;53.43
62544;BME280;48597;49.030;1.822;2023-07-29T12:38:28;100135.41;;;24.40;53.42
62544;BME280;48597;49.030;1.822;2023-07-29T12:40:54;100134.88;;;24.42;53.21
62544;BME280;48597;49.030;1.822;2023-07-29T12:43:19;100125.44;;;24.41;53.18
62544;BME280;48597;49.030;1.822;2023-07-29T12:45:45;100125.44;;;24.41;53.19
62544;BME280;48597;49.030;1.822;2023-07-29T12:48:10;100127.03;;;24.42;53.25
62544;BME280;48597;49.030;1.822;2023-07-29T12:50:37;100129.41;;;24.44;53.32
62544;BME280;48597;49.030;1.822;2023-07-29T12:53:04;100127.81;;;24.43;53.12
62544;BME280;48597;49.030;1.822;2023-07-29T12:55:30;100120.75;;;24.44;53.14
62544;BME280;48597;49.030;1.822;2023-07-29T12:57:55;100131.00;;;24.45;53.08
62544;BME280;48597;49.030;1.822;2023-07-29T13:00:21;100128.91;;;24.45;53.18
62544;BME280;48597;49.030;1.822;2023-07-29T13:02:46;100121.84;;;24.46;53.20
62544;BME280;48597;49.030;1.822;2023-07-29T13:05:12;100122.66;;;24.47;53.20
62544;BME280;48597;49.030;1.822;2023-07-29T13:07:41;100123.44;;;24.47;53.28
62544;BME280;48597;49.030;1.822;2023-07-29T13:10:08;100109.84;;;24.48;53.35